sensor_id;sensor_type;location;lat;lon;timestamp;temperature;humidity
75262;DHT22;63859;51.064;4.580;2023-03-23T00:01:15;13.00;99.90
75262;DHT22;63859;51.064;4.580;2023-03-23T00:03:49;13.00;99.90
75262;DHT22;63859;51.064;4.580;2023-03-23T00:06:16;13.00;99.90
75262;DHT22;63859;51.064;4.580;2023-03-23T00:08:47;13.00;99.90
75262;DHT22;63859;51.064;4.580;2023-03-23T00:11:15;13.10;99.90
75262;DHT22;63859;51.064;4.580;2023-03-23T00:13:42;13.10;99.90
75262;DHT22;63859;51.064;4.580;2023-03-23T00:16:09;13.10;99.90
75262;DHT22;63859;51.064;4.580;2023-03-23T00:18:48;13.10;99.90
75262;DHT22;63859;51.064;4.580;2023-03-23T00:21:21;13.10;99.90
75262;DHT22;63859;51.064;4.580;2023-03-23T00:23:59;13.10;99.90
75262;DHT22;63859;51.064;4.580;2023-03-23T00:26:25;13.00;99.90
75262;DHT22;63859;51.064;4.580;2023-03-23T00:28:54;13.10;99.90
75262;DHT22;63859;51.064;4.580;2023-03-23T00:31:19;13.10;99.90
75262;DHT22;63859;51.064;4.580;2023-03-23T00:33:45;13.10;99.90
75262;DHT22;63859;51.064;4.580;2023-03-23T00:36:12;13.00;99.90
75262;DHT22;63859;51.064;4.580;2023-03-23T00:38:39;13.00;99.90
75262;DHT22;63859;51.064;4.580;2023-03-23T00:41:06;13.10;99.90
75262;DHT22;63859;51.064;4.580;2023-03-23T00:43:32;13.00;99.90
75262;DHT22;63859;51.064;4.580;2023-03-23T00:46:01;13.00;99.90
75262;DHT22;63859;51.064;4.580;2023-03-23T00:48:29;13.00;99.90
75262;DHT22;63859;51.064;4.580;2023-03-23T00:50:55;13.00;99.90
75262;DHT22;63859;51.064;4.580;2023-03-23T00:53:21;13.00;99.90
75262;DHT22;63859;51.064;4.580;2023-03-23T00:55:48;13.00;99.90
75262;DHT22;63859;51.064;4.580;2023-03-23T00:58:15;12.90;99.90
75262;DHT22;63859;51.064;4.580;2023-03-23T01:00:41;13.00;99.90
75262;DHT22;63859;51.064;4.580;2023-03-23T01:03:08;13.00;99.90
75262;DHT22;63859;51.064;4.580;2023-03-23T01:05:39;13.00;99.90
75262;DHT22;63859;51.064;4.580;2023-03-23T01:08:05;13.00;99.90
75262;DHT22;63859;51.064;4.580;2023-03-23T01:10:32;12.90;99.90
75262;DHT22;63859;51.064;4.580;2023-03-23T01:12:59;13.00;99.90
75262;DHT22;63859;51.064;4.580;2023-03-23T01:15:26;13.00;99.90
75262;DHT22;63859;51.064;4.580;2023-03-23T01:17:52;13.00;99.90
75262;DHT22;63859;51.064;4.580;2023-03-23T01:20:18;13.00;99.90
75262;DHT22;63859;51.064;4.580;2023-03-23T01:22:44;13.00;99.90
75262;DHT22;63859;51.064;4.580;2023-03-23T01:25:11;13.10;99.90
75262;DHT22;63859;51.064;4.580;2023-03-23T01:27:37;13.10;99.90
75262;DHT22;63859;51.064;4.580;2023-03-23T01:30:05;13.10;99.90
75262;DHT22;63859;51.064;4.580;2023-03-23T01:32:32;13.10;99.90
75262;DHT22;63859;51.064;4.580;2023-03-23T01:34:58;13.10;99.90
75262;DHT22;63859;51.064;4.580;2023-03-23T01:37:23;13.10;99.90
75262;DHT22;63859;51.064;4.580;2023-03-23T01:39:56;13.10;99.90
75262;DHT22;63859;51.064;4.580;2023-03-23T01:42:29;13.10;99.90
75262;DHT22;63859;51.064;4.580;2023-03-23T01:47:39;13.10;99.90
75262;DHT22;63859;51.064;4.580;2023-03-23T01:50:05;12.90;99.90
75262;DHT22;63859;51.064;4.580;2023-03-23T01:52:31;13.10;99.90
75262;DHT22;63859;51.064;4.580;2023-03-23T01:54:59;13.10;99.90
75262;DHT22;63859;51.064;4.580;2023-03-23T01:57:26;13.10;99.90
75262;DHT22;63859;51.064;4.580;2023-03-23T01:59:53;13.10;99.90
75262;DHT22;63859;51.064;4.580;2023-03-23T02:02:22;13.00;99.90
75262;DHT22;63859;51.064;4.580;2023-03-23T02:04:49;13.00;99.90
75262;DHT22;63859;51.064;4.580;2023-03-23T02:07:19;13.00;99.90
75262;DHT22;63859;51.064;4.580;2023-03-23T02:09:45;13.00;99.90
75262;DHT22;63859;51.064;4.580;2023-03-23T02:12:11;13.00;99.90
75262;DHT22;63859;51.064;4.580;2023-03-23T02:14:37;13.00;99.90
75262;DHT22;63859;51.064;4.580;2023-03-23T02:17:39;13.00;99.90
75262;DHT22;63859;51.064;4.580;2023-03-23T02:20:23;13.00;99.90
75262;DHT22;63859;51.064;4.580;2023-03-23T02:34:00;13.00;99.90
75262;DHT22;63859;51.064;4.580;2023-03-23T02:36:33;13.00;99.90
75262;DHT22;63859;51.064;4.580;2023-03-23T02:39:10;13.00;99.90
75262;DHT22;63859;51.064;4.580;2023-03-23T02:41:49;13.10;99.90
75262;DHT22;63859;51.064;4.580;2023-03-23T02:44:16;13.10;99.90
75262;DHT22;63859;51.064;4.580;2023-03-23T02:46:43;13.00;99.90
75262;DHT22;63859;51.064;4.580;2023-03-23T02:49:12;13.00;99.90
75262;DHT22;63859;51.064;4.580;2023-03-23T02:51:42;13.00;99.90
75262;DHT22;63859;51.064;4.580;2023-03-23T02:54:09;13.00;99.90
75262;DHT22;63859;51.064;4.580;2023-03-23T02:56:36;13.00;99.90
75262;DHT22;63859;51.064;4.580;2023-03-23T02:59:02;13.00;99.90
75262;DHT22;63859;51.064;4.580;2023-03-23T03:04:06;12.90;99.90
75262;DHT22;63859;51.064;4.580;2023-03-23T03:12:51;12.90;99.90
75262;DHT22;63859;51.064;4.580;2023-03-23T03:20:52;12.80;99.90
75262;DHT22;63859;51.064;4.580;2023-03-23T03:23:20;12.90;99.90
75262;DHT22;63859;51.064;4.580;2023-03-23T03:25:47;12.90;99.90
75262;DHT22;63859;51.064;4.580;2023-03-23T03:28:19;12.80;99.90
75262;DHT22;63859;51.064;4.580;2023-03-23T03:30:51;12.80;99.90
75262;DHT22;63859;51.064;4.580;2023-03-23T03:33:20;12.80;99.90
75262;DHT22;63859;51.064;4.580;2023-03-23T03:35:46;12.80;99.90
75262;DHT22;63859;51.064;4.580;2023-03-23T03:38:12;12.80;99.90
75262;DHT22;63859;51.064;4.580;2023-03-23T03:40:38;12.80;99.90
75262;DHT22;63859;51.064;4.580;2023-03-23T03:43:04;12.70;99.90
75262;DHT22;63859;51.064;4.580;2023-03-23T03:45:31;12.80;99.90
75262;DHT22;63859;51.064;4.580;2023-03-23T03:47:57;12.80;99.90
75262;DHT22;63859;51.064;4.580;2023-03-23T03:50:22;12.80;99.90
75262;DHT22;63859;51.064;4.580;2023-03-23T03:52:48;12.80;99.90
75262;DHT22;63859;51.064;4.580;2023-03-23T03:55:14;12.80;99.90
75262;DHT22;63859;51.064;4.580;2023-03-23T03:57:41;12.70;99.90
75262;DHT22;63859;51.064;4.580;2023-03-23T04:00:08;12.70;99.90
75262;DHT22;63859;51.064;4.580;2023-03-23T04:02:50;12.80;99.90
75262;DHT22;63859;51.064;4.580;2023-03-23T04:05:21;12.90;99.90
75262;DHT22;63859;51.064;4.580;2023-03-23T04:07:47;12.80;99.90
75262;DHT22;63859;51.064;4.580;2023-03-23T04:10:15;12.80;99.90
75262;DHT22;63859;51.064;4.580;2023-03-23T04:12:40;12.80;99.90
75262;DHT22;63859;51.064;4.580;2023-03-23T04:15:07;12.80;99.90
75262;DHT22;63859;51.064;4.580;2023-03-23T04:17:34;12.80;99.90
75262;DHT22;63859;51.064;4.580;2023-03-23T04:19:59;12.80;99.90
75262;DHT22;63859;51.064;4.580;2023-03-23T04:22:26;12.80;99.90
75262;DHT22;63859;51.064;4.580;2023-03-23T04:24:59;12.80;99.90
75262;DHT22;63859;51.064;4.580;2023-03-23T04:27:26;12.80;99.90
75262;DHT22;63859;51.064;4.580;2023-03-23T04:29:56;12.70;99.90
75262;DHT22;63859;51.064;4.580;2023-03-23T04:32:24;12.80;99.90
75262;DHT22;63859;51.064;4.580;2023-03-23T04:34:57;12.80;99.90
75262;DHT22;63859;51.064;4.580;2023-03-23T04:37:26;12.80;99.90
75262;DHT22;63859;51.064;4.580;2023-03-23T04:39:55;12.80;99.90
75262;DHT22;63859;51.064;4.580;2023-03-23T04:42:29;12.70;99.90
75262;DHT22;63859;51.064;4.580;2023-03-23T04:44:57;12.80;99.90
75262;DHT22;63859;51.064;4.580;2023-03-23T04:47:24;12.80;99.90
75262;DHT22;63859;51.064;4.580;2023-03-23T04:49:50;12.80;99.90
75262;DHT22;63859;51.064;4.580;2023-03-23T04:52:17;12.70;99.90
75262;DHT22;63859;51.064;4.580;2023-03-23T04:54:43;12.80;99.90
75262;DHT22;63859;51.064;4.580;2023-03-23T04:57:09;12.70;99.90
75262;DHT22;63859;51.064;4.580;2023-03-23T04:59:35;12.80;99.90
75262;DHT22;63859;51.064;4.580;2023-03-23T05:02:01;12.70;99.90
75262;DHT22;63859;51.064;4.580;2023-03-23T05:04:27;12.70;99.90
75262;DHT22;63859;51.064;4.580;2023-03-23T05:06:53;12.70;99.90
75262;DHT22;63859;51.064;4.580;2023-03-23T05:09:19;12.70;99.90
75262;DHT22;63859;51.064;4.580;2023-03-23T05:11:45;12.60;99.90
75262;DHT22;63859;51.064;4.580;2023-03-23T05:14:11;12.60;99.90
75262;DHT22;63859;51.064;4.580;2023-03-23T05:16:38;12.60;99.90
75262;DHT22;63859;51.064;4.580;2023-03-23T05:19:04;12.60;99.90
75262;DHT22;63859;51.064;4.580;2023-03-23T05:21:31;12.60;99.90
75262;DHT22;63859;51.064;4.580;2023-03-23T05:23:57;12.60;99.90
75262;DHT22;63859;51.064;4.580;2023-03-23T05:26:26;12.50;99.90
75262;DHT22;63859;51.064;4.580;2023-03-23T05:28:56;12.50;99.90
75262;DHT22;63859;51.064;4.580;2023-03-23T05:31:22;12.50;99.90
75262;DHT22;63859;51.064;4.580;2023-03-23T05:33:50;12.50;99.90
75262;DHT22;63859;51.064;4.580;2023-03-23T05:36:16;12.50;99.90
75262;DHT22;63859;51.064;4.580;2023-03-23T05:38:42;12.50;99.90
75262;DHT22;63859;51.064;4.580;2023-03-23T05:41:11;12.50;99.90
75262;DHT22;63859;51.064;4.580;2023-03-23T05:43:37;12.50;99.90
75262;DHT22;63859;51.064;4.580;2023-03-23T05:46:03;12.60;99.90
75262;DHT22;63859;51.064;4.580;2023-03-23T05:48:28;12.50;99.90
75262;DHT22;63859;51.064;4.580;2023-03-23T05:50:54;12.50;99.90
75262;DHT22;63859;51.064;4.580;2023-03-23T05:53:20;12.50;99.90
75262;DHT22;63859;51.064;4.580;2023-03-23T05:55:46;12.50;99.90
75262;DHT22;63859;51.064;4.580;2023-03-23T05:58:12;12.50;99.90
75262;DHT22;63859;51.064;4.580;2023-03-23T06:00:38;12.50;99.90
75262;DHT22;63859;51.064;4.580;2023-03-23T06:03:04;12.50;99.90
75262;DHT22;63859;51.064;4.580;2023-03-23T06:05:29;12.50;99.90
75262;DHT22;63859;51.064;4.580;2023-03-23T06:07:55;12.50;99.90
75262;DHT22;63859;51.064;4.580;2023-03-23T06:10:21;12.40;99.90
75262;DHT22;63859;51.064;4.580;2023-03-23T06:12:49;12.40;99.90
75262;DHT22;63859;51.064;4.580;2023-03-23T06:15:17;12.50;99.90
75262;DHT22;63859;51.064;4.580;2023-03-23T06:17:42;12.50;99.90
75262;DHT22;63859;51.064;4.580;2023-03-23T06:20:09;12.50;99.90
75262;DHT22;63859;51.064;4.580;2023-03-23T06:22:39;12.50;99.90
75262;DHT22;63859;51.064;4.580;2023-03-23T06:25:09;12.50;99.90
75262;DHT22;63859;51.064;4.580;2023-03-23T06:27:35;12.50;99.90
75262;DHT22;63859;51.064;4.580;2023-03-23T06:30:01;12.60;99.90
75262;DHT22;63859;51.064;4.580;2023-03-23T06:32:28;12.60;99.90
75262;DHT22;63859;51.064;4.580;2023-03-23T06:34:56;12.60;99.90
75262;DHT22;63859;51.064;4.580;2023-03-23T06:37:22;12.60;99.90
75262;DHT22;63859;51.064;4.580;2023-03-23T06:39:49;12.60;99.90
75262;DHT22;63859;51.064;4.580;2023-03-23T06:42:14;12.60;99.90
75262;DHT22;63859;51.064;4.580;2023-03-23T06:44:40;12.60;99.90
75262;DHT22;63859;51.064;4.580;2023-03-23T06:47:05;12.60;99.90
75262;DHT22;63859;51.064;4.580;2023-03-23T06:49:33;12.60;99.90
75262;DHT22;63859;51.064;4.580;2023-03-23T06:51:58;12.20;99.90
75262;DHT22;63859;51.064;4.580;2023-03-23T06:54:27;11.90;99.90
75262;DHT22;63859;51.064;4.580;2023-03-23T06:56:53;11.60;99.90
75262;DHT22;63859;51.064;4.580;2023-03-23T06:59:18;11.30;99.90
75262;DHT22;63859;51.064;4.580;2023-03-23T07:01:44;11.20;99.90
75262;DHT22;63859;51.064;4.580;2023-03-23T07:04:12;11.00;99.90
75262;DHT22;63859;51.064;4.580;2023-03-23T07:06:37;10.90;99.90
75262;DHT22;63859;51.064;4.580;2023-03-23T07:09:04;10.80;99.90
75262;DHT22;63859;51.064;4.580;2023-03-23T07:11:29;10.80;99.90
75262;DHT22;63859;51.064;4.580;2023-03-23T07:13:55;10.70;99.90
75262;DHT22;63859;51.064;4.580;2023-03-23T07:16:21;10.60;99.90
75262;DHT22;63859;51.064;4.580;2023-03-23T07:18:47;10.50;99.90
75262;DHT22;63859;51.064;4.580;2023-03-23T07:21:12;10.50;99.90
75262;DHT22;63859;51.064;4.580;2023-03-23T07:23:38;10.40;99.90
75262;DHT22;63859;51.064;4.580;2023-03-23T07:26:04;10.40;99.90
75262;DHT22;63859;51.064;4.580;2023-03-23T07:28:30;10.40;99.90
75262;DHT22;63859;51.064;4.580;2023-03-23T07:30:56;10.30;99.90
75262;DHT22;63859;51.064;4.580;2023-03-23T07:33:22;10.10;99.90
75262;DHT22;63859;51.064;4.580;2023-03-23T07:35:47;10.20;99.90
75262;DHT22;63859;51.064;4.580;2023-03-23T07:38:13;10.20;99.90
75262;DHT22;63859;51.064;4.580;2023-03-23T07:40:39;10.20;99.90
75262;DHT22;63859;51.064;4.580;2023-03-23T07:43:06;10.20;99.90
75262;DHT22;63859;51.064;4.580;2023-03-23T07:45:32;10.30;99.90
75262;DHT22;63859;51.064;4.580;2023-03-23T07:47:59;10.20;99.90
75262;DHT22;63859;51.064;4.580;2023-03-23T07:50:25;10.20;99.90
75262;DHT22;63859;51.064;4.580;2023-03-23T07:52:54;10.20;99.90
75262;DHT22;63859;51.064;4.580;2023-03-23T07:55:20;10.20;99.90
75262;DHT22;63859;51.064;4.580;2023-03-23T07:57:47;10.20;99.90
75262;DHT22;63859;51.064;4.580;2023-03-23T08:00:15;10.30;99.90
75262;DHT22;63859;51.064;4.580;2023-03-23T08:02:47;10.30;99.90
75262;DHT22;63859;51.064;4.580;2023-03-23T08:05:14;10.30;99.90
75262;DHT22;63859;51.064;4.580;2023-03-23T08:07:41;10.40;99.90
75262;DHT22;63859;51.064;4.580;2023-03-23T08:10:08;10.40;99.90
75262;DHT22;63859;51.064;4.580;2023-03-23T08:12:38;10.40;99.90
75262;DHT22;63859;51.064;4.580;2023-03-23T08:15:06;10.50;99.90
75262;DHT22;63859;51.064;4.580;2023-03-23T08:17:33;10.50;99.90
75262;DHT22;63859;51.064;4.580;2023-03-23T08:20:00;10.60;99.90
75262;DHT22;63859;51.064;4.580;2023-03-23T08:22:25;10.60;99.90
75262;DHT22;63859;51.064;4.580;2023-03-23T08:24:51;10.70;99.90
75262;DHT22;63859;51.064;4.580;2023-03-23T08:27:18;10.70;99.90
75262;DHT22;63859;51.064;4.580;2023-03-23T08:29:46;10.70;99.90
75262;DHT22;63859;51.064;4.580;2023-03-23T08:32:13;10.70;99.90
75262;DHT22;63859;51.064;4.580;2023-03-23T08:34:40;10.80;99.90
75262;DHT22;63859;51.064;4.580;2023-03-23T08:37:07;10.80;99.90
75262;DHT22;63859;51.064;4.580;2023-03-23T08:39:34;10.80;99.90
75262;DHT22;63859;51.064;4.580;2023-03-23T08:42:00;10.80;99.90
75262;DHT22;63859;51.064;4.580;2023-03-23T08:44:25;10.80;99.90
75262;DHT22;63859;51.064;4.580;2023-03-23T08:46:51;10.90;99.90
75262;DHT22;63859;51.064;4.580;2023-03-23T08:49:22;10.80;99.90
75262;DHT22;63859;51.064;4.580;2023-03-23T08:51:48;10.70;99.90
75262;DHT22;63859;51.064;4.580;2023-03-23T08:54:14;10.70;99.90
75262;DHT22;63859;51.064;4.580;2023-03-23T08:56:39;10.80;99.90
75262;DHT22;63859;51.064;4.580;2023-03-23T08:59:06;10.90;99.90
75262;DHT22;63859;51.064;4.580;2023-03-23T09:01:32;10.90;99.90
75262;DHT22;63859;51.064;4.580;2023-03-23T09:03:58;10.90;99.90
75262;DHT22;63859;51.064;4.580;2023-03-23T09:06:25;10.90;99.90
75262;DHT22;63859;51.064;4.580;2023-03-23T09:08:52;11.00;99.90
75262;DHT22;63859;51.064;4.580;2023-03-23T09:11:18;11.00;99.90
75262;DHT22;63859;51.064;4.580;2023-03-23T09:13:43;11.00;99.90
75262;DHT22;63859;51.064;4.580;2023-03-23T09:16:09;11.10;99.90
75262;DHT22;63859;51.064;4.580;2023-03-23T09:18:36;11.10;99.90
75262;DHT22;63859;51.064;4.580;2023-03-23T09:21:02;11.20;99.90
75262;DHT22;63859;51.064;4.580;2023-03-23T09:23:28;11.20;99.90
75262;DHT22;63859;51.064;4.580;2023-03-23T09:25:55;11.20;99.90
75262;DHT22;63859;51.064;4.580;2023-03-23T09:28:21;11.20;99.90
75262;DHT22;63859;51.064;4.580;2023-03-23T09:30:46;11.20;99.90
75262;DHT22;63859;51.064;4.580;2023-03-23T09:33:13;11.20;99.90
75262;DHT22;63859;51.064;4.580;2023-03-23T09:35:39;11.20;99.90
75262;DHT22;63859;51.064;4.580;2023-03-23T09:38:07;11.30;99.90
75262;DHT22;63859;51.064;4.580;2023-03-23T09:41:22;11.40;99.90
75262;DHT22;63859;51.064;4.580;2023-03-23T09:46:42;11.60;99.90
75262;DHT22;63859;51.064;4.580;2023-03-23T09:49:40;11.70;99.90
75262;DHT22;63859;51.064;4.580;2023-03-23T09:52:15;11.80;99.90
75262;DHT22;63859;51.064;4.580;2023-03-23T09:54:49;11.90;99.90
75262;DHT22;63859;51.064;4.580;2023-03-23T10:00:34;12.00;99.90
75262;DHT22;63859;51.064;4.580;2023-03-23T10:03:16;12.20;99.90
75262;DHT22;63859;51.064;4.580;2023-03-23T10:05:46;12.30;99.90
75262;DHT22;63859;51.064;4.580;2023-03-23T10:08:22;12.30;99.90
75262;DHT22;63859;51.064;4.580;2023-03-23T10:11:02;12.50;99.90
75262;DHT22;63859;51.064;4.580;2023-03-23T10:16:07;12.80;99.90
75262;DHT22;63859;51.064;4.580;2023-03-23T10:18:43;12.90;99.90
75262;DHT22;63859;51.064;4.580;2023-03-23T10:21:16;12.90;99.90
75262;DHT22;63859;51.064;4.580;2023-03-23T10:26:33;13.00;99.90
75262;DHT22;63859;51.064;4.580;2023-03-23T10:31:43;13.10;99.90
75262;DHT22;63859;51.064;4.580;2023-03-23T10:34:22;13.20;99.90
75262;DHT22;63859;51.064;4.580;2023-03-23T10:39:58;13.30;99.90
75262;DHT22;63859;51.064;4.580;2023-03-23T10:42:31;13.30;99.90
75262;DHT22;63859;51.064;4.580;2023-03-23T10:44:59;13.30;99.90
75262;DHT22;63859;51.064;4.580;2023-03-23T10:47:26;13.30;99.90
75262;DHT22;63859;51.064;4.580;2023-03-23T10:50:01;13.30;99.90
75262;DHT22;63859;51.064;4.580;2023-03-23T10:52:35;13.40;99.90
75262;DHT22;63859;51.064;4.580;2023-03-23T10:55:08;13.40;99.90
75262;DHT22;63859;51.064;4.580;2023-03-23T10:57:37;13.50;99.90
75262;DHT22;63859;51.064;4.580;2023-03-23T11:00:23;13.50;99.90
75262;DHT22;63859;51.064;4.580;2023-03-23T11:03:06;13.60;99.90
75262;DHT22;63859;51.064;4.580;2023-03-23T11:05:37;13.50;99.90
75262;DHT22;63859;51.064;4.580;2023-03-23T11:08:04;13.50;99.90
75262;DHT22;63859;51.064;4.580;2023-03-23T11:10:40;13.50;99.90
75262;DHT22;63859;51.064;4.580;2023-03-23T11:13:14;13.50;99.90
75262;DHT22;63859;51.064;4.580;2023-03-23T11:15:42;13.60;99.90
75262;DHT22;63859;51.064;4.580;2023-03-23T11:18:12;13.70;99.90
75262;DHT22;63859;51.064;4.580;2023-03-23T11:20:43;14.00;99.90
75262;DHT22;63859;51.064;4.580;2023-03-23T11:23:19;14.30;99.90
75262;DHT22;63859;51.064;4.580;2023-03-23T11:28:29;14.50;99.90
75262;DHT22;63859;51.064;4.580;2023-03-23T11:30:57;14.60;99.90
75262;DHT22;63859;51.064;4.580;2023-03-23T11:33:24;14.80;99.90
75262;DHT22;63859;51.064;4.580;2023-03-23T11:35:52;14.80;99.90
75262;DHT22;63859;51.064;4.580;2023-03-23T11:38:21;14.60;99.90
75262;DHT22;63859;51.064;4.580;2023-03-23T11:40:50;14.70;99.90
75262;DHT22;63859;51.064;4.580;2023-03-23T11:43:21;14.80;99.90
75262;DHT22;63859;51.064;4.580;2023-03-23T11:48:35;14.80;99.90
75262;DHT22;63859;51.064;4.580;2023-03-23T11:51:38;14.60;99.90
75262;DHT22;63859;51.064;4.580;2023-03-23T11:54:37;14.60;99.90
75262;DHT22;63859;51.064;4.580;2023-03-23T11:57:09;14.70;99.90
75262;DHT22;63859;51.064;4.580;2023-03-23T11:59:37;15.10;99.90
75262;DHT22;63859;51.064;4.580;2023-03-23T12:02:35;15.50;99.90
75262;DHT22;63859;51.064;4.580;2023-03-23T12:05:34;15.80;99.90
75262;DHT22;63859;51.064;4.580;2023-03-23T12:27:48;16.10;99.90
75262;DHT22;63859;51.064;4.580;2023-03-23T12:44:13;17.00;99.90
75262;DHT22;63859;51.064;4.580;2023-03-23T12:47:01;16.70;99.90
75262;DHT22;63859;51.064;4.580;2023-03-23T12:49:39;16.70;99.90
75262;DHT22;63859;51.064;4.580;2023-03-23T12:52:22;16.80;99.90
75262;DHT22;63859;51.064;4.580;2023-03-23T12:54:57;16.90;99.90
75262;DHT22;63859;51.064;4.580;2023-03-23T12:57:32;17.20;99.90
75262;DHT22;63859;51.064;4.580;2023-03-23T13:00:05;17.20;99.90
75262;DHT22;63859;51.064;4.580;2023-03-23T13:02:42;17.60;99.90
75262;DHT22;63859;51.064;4.580;2023-03-23T13:07:49;17.70;99.90
75262;DHT22;63859;51.064;4.580;2023-03-23T13:10:28;18.00;99.90
75262;DHT22;63859;51.064;4.580;2023-03-23T13:12:55;17.90;99.90
75262;DHT22;63859;51.064;4.580;2023-03-23T13:15:41;17.60;99.90
75262;DHT22;63859;51.064;4.580;2023-03-23T13:23:31;18.10;99.90
75262;DHT22;63859;51.064;4.580;2023-03-23T13:26:12;18.10;99.90
75262;DHT22;63859;51.064;4.580;2023-03-23T13:31:45;17.60;99.90
75262;DHT22;63859;51.064;4.580;2023-03-23T13:34:22;17.20;99.90
75262;DHT22;63859;51.064;4.580;2023-03-23T13:37:00;17.00;99.90
75262;DHT22;63859;51.064;4.580;2023-03-23T13:44:54;17.40;99.90
75262;DHT22;63859;51.064;4.580;2023-03-23T13:49:56;18.00;99.90
75262;DHT22;63859;51.064;4.580;2023-03-23T14:03:25;17.70;99.90
75262;DHT22;63859;51.064;4.580;2023-03-23T14:11:01;17.10;99.90
75262;DHT22;63859;51.064;4.580;2023-03-23T14:19:03;17.30;99.90
75262;DHT22;63859;51.064;4.580;2023-03-23T14:21:33;17.30;99.90
75262;DHT22;63859;51.064;4.580;2023-03-23T14:24:05;17.30;99.90
75262;DHT22;63859;51.064;4.580;2023-03-23T14:26:34;17.30;99.90
75262;DHT22;63859;51.064;4.580;2023-03-23T14:29:02;17.10;99.90
75262;DHT22;63859;51.064;4.580;2023-03-23T14:31:28;17.00;99.90
75262;DHT22;63859;51.064;4.580;2023-03-23T14:33:56;17.10;99.90
75262;DHT22;63859;51.064;4.580;2023-03-23T14:36:24;17.10;99.90
75262;DHT22;63859;51.064;4.580;2023-03-23T14:39:02;17.00;99.90
75262;DHT22;63859;51.064;4.580;2023-03-23T14:41:30;17.10;99.90
75262;DHT22;63859;51.064;4.580;2023-03-23T14:43:56;17.50;99.90
75262;DHT22;63859;51.064;4.580;2023-03-23T14:46:22;17.50;99.90
75262;DHT22;63859;51.064;4.580;2023-03-23T14:48:49;17.30;99.90
75262;DHT22;63859;51.064;4.580;2023-03-23T14:51:18;17.40;99.90
75262;DHT22;63859;51.064;4.580;2023-03-23T14:53:44;17.10;99.90
75262;DHT22;63859;51.064;4.580;2023-03-23T14:56:18;17.20;99.90
75262;DHT22;63859;51.064;4.580;2023-03-23T14:58:49;17.40;99.90
75262;DHT22;63859;51.064;4.580;2023-03-23T15:01:19;17.40;99.90
75262;DHT22;63859;51.064;4.580;2023-03-23T15:06:25;17.10;99.90
75262;DHT22;63859;51.064;4.580;2023-03-23T15:08:53;16.90;99.90
75262;DHT22;63859;51.064;4.580;2023-03-23T15:13:55;16.70;99.90
75262;DHT22;63859;51.064;4.580;2023-03-23T15:16:27;16.50;99.90
75262;DHT22;63859;51.064;4.580;2023-03-23T15:18:59;16.30;99.90
75262;DHT22;63859;51.064;4.580;2023-03-23T15:21:32;16.20;99.90
75262;DHT22;63859;51.064;4.580;2023-03-23T15:24:00;16.70;99.90
75262;DHT22;63859;51.064;4.580;2023-03-23T15:26:30;17.00;99.90
75262;DHT22;63859;51.064;4.580;2023-03-23T15:32:00;17.20;99.90
75262;DHT22;63859;51.064;4.580;2023-03-23T15:34:31;16.90;99.90
75262;DHT22;63859;51.064;4.580;2023-03-23T15:37:03;16.80;99.90
75262;DHT22;63859;51.064;4.580;2023-03-23T15:39:30;16.60;99.90
75262;DHT22;63859;51.064;4.580;2023-03-23T15:41:57;16.40;99.90
75262;DHT22;63859;51.064;4.580;2023-03-23T15:44:32;16.30;99.90
75262;DHT22;63859;51.064;4.580;2023-03-23T15:47:16;16.30;99.90
75262;DHT22;63859;51.064;4.580;2023-03-23T15:49:44;16.30;99.90
75262;DHT22;63859;51.064;4.580;2023-03-23T15:52:12;16.70;99.90
75262;DHT22;63859;51.064;4.580;2023-03-23T15:54:38;17.00;99.90
75262;DHT22;63859;51.064;4.580;2023-03-23T15:57:04;17.20;99.90
75262;DHT22;63859;51.064;4.580;2023-03-23T15:59:30;17.10;99.90
75262;DHT22;63859;51.064;4.580;2023-03-23T16:01:56;16.80;99.90
75262;DHT22;63859;51.064;4.580;2023-03-23T16:04:22;16.60;99.90
75262;DHT22;63859;51.064;4.580;2023-03-23T16:06:49;16.40;99.90
75262;DHT22;63859;51.064;4.580;2023-03-23T16:09:18;16.30;99.90
75262;DHT22;63859;51.064;4.580;2023-03-23T16:11:44;16.30;99.90
75262;DHT22;63859;51.064;4.580;2023-03-23T16:14:10;16.20;99.90
75262;DHT22;63859;51.064;4.580;2023-03-23T16:16:47;16.00;99.90
75262;DHT22;63859;51.064;4.580;2023-03-23T16:19:14;15.90;99.90
75262;DHT22;63859;51.064;4.580;2023-03-23T16:21:41;15.70;99.90
75262;DHT22;63859;51.064;4.580;2023-03-23T16:24:07;15.50;99.90
75262;DHT22;63859;51.064;4.580;2023-03-23T16:26:34;15.40;99.90
75262;DHT22;63859;51.064;4.580;2023-03-23T16:29:00;15.50;99.90
75262;DHT22;63859;51.064;4.580;2023-03-23T16:31:27;15.50;99.90
75262;DHT22;63859;51.064;4.580;2023-03-23T16:33:53;15.50;99.90
75262;DHT22;63859;51.064;4.580;2023-03-23T16:36:19;15.50;99.90
75262;DHT22;63859;51.064;4.580;2023-03-23T16:38:45;15.60;99.90
75262;DHT22;63859;51.064;4.580;2023-03-23T16:41:10;15.50;99.90
75262;DHT22;63859;51.064;4.580;2023-03-23T16:43:36;15.50;99.90
75262;DHT22;63859;51.064;4.580;2023-03-23T16:46:02;15.60;99.90
75262;DHT22;63859;51.064;4.580;2023-03-23T16:48:27;15.70;99.90
75262;DHT22;63859;51.064;4.580;2023-03-23T16:50:53;15.70;99.90
75262;DHT22;63859;51.064;4.580;2023-03-23T16:53:19;15.70;99.90
75262;DHT22;63859;51.064;4.580;2023-03-23T16:55:45;15.60;99.90
75262;DHT22;63859;51.064;4.580;2023-03-23T16:58:13;15.60;99.90
75262;DHT22;63859;51.064;4.580;2023-03-23T17:00:39;15.60;99.90
75262;DHT22;63859;51.064;4.580;2023-03-23T17:03:05;15.50;99.90
75262;DHT22;63859;51.064;4.580;2023-03-23T17:05:31;15.60;99.90
75262;DHT22;63859;51.064;4.580;2023-03-23T17:07:57;15.60;99.90
75262;DHT22;63859;51.064;4.580;2023-03-23T17:10:25;15.50;99.90
75262;DHT22;63859;51.064;4.580;2023-03-23T17:12:52;15.60;99.90
75262;DHT22;63859;51.064;4.580;2023-03-23T17:15:18;15.50;99.90
75262;DHT22;63859;51.064;4.580;2023-03-23T17:17:45;15.50;99.90
75262;DHT22;63859;51.064;4.580;2023-03-23T17:20:11;15.40;99.90
75262;DHT22;63859;51.064;4.580;2023-03-23T17:22:38;15.30;99.90
75262;DHT22;63859;51.064;4.580;2023-03-23T17:25:05;15.30;99.90
75262;DHT22;63859;51.064;4.580;2023-03-23T17:27:33;15.20;99.90
75262;DHT22;63859;51.064;4.580;2023-03-23T17:29:59;15.20;99.90
75262;DHT22;63859;51.064;4.580;2023-03-23T17:32:24;15.10;99.90
75262;DHT22;63859;51.064;4.580;2023-03-23T17:34:50;15.10;99.90
75262;DHT22;63859;51.064;4.580;2023-03-23T17:37:17;15.00;99.90
75262;DHT22;63859;51.064;4.580;2023-03-23T17:39:43;15.00;99.90
75262;DHT22;63859;51.064;4.580;2023-03-23T17:42:09;14.90;99.90
75262;DHT22;63859;51.064;4.580;2023-03-23T17:44:35;14.90;99.90
75262;DHT22;63859;51.064;4.580;2023-03-23T17:47:00;14.90;99.90
75262;DHT22;63859;51.064;4.580;2023-03-23T17:49:27;14.90;99.90
75262;DHT22;63859;51.064;4.580;2023-03-23T17:51:55;14.80;99.90
75262;DHT22;63859;51.064;4.580;2023-03-23T17:54:22;14.80;99.90